createdAt,value
2022-10-09T00:00:12.421Z,40.52
2022-10-09T00:02:40.412Z,40.57
2022-10-09T00:05:09.011Z,40.68
2022-10-09T00:07:36.840Z,41.04
2022-10-09T00:10:05.534Z,40.69
2022-10-09T00:12:33.419Z,40.92
2022-10-09T00:15:02.585Z,40.83
2022-10-09T00:17:30.508Z,40.91
2022-10-09T00:19:58.410Z,40.83
2022-10-09T00:22:27.963Z,40.75
2022-10-09T00:24:55.816Z,40.74
2022-10-09T00:27:24.140Z,41.08
2022-10-09T00:29:52.531Z,40.90
2022-10-09T00:32:21.677Z,41.03
2022-10-09T00:34:49.526Z,41.05
2022-10-09T00:37:17.317Z,41.11
2022-10-09T00:39:45.185Z,40.96
2022-10-09T00:42:13.836Z,40.92
2022-10-09T00:44:57.306Z,41.59
2022-10-09T00:47:31.290Z,41.49
2022-10-09T00:50:09.360Z,41.52
2022-10-09T00:52:37.364Z,41.20
2022-10-09T00:55:09.085Z,40.93
2022-10-09T00:57:39.902Z,41.18
2022-10-09T01:00:10.617Z,41.16
2022-10-09T01:02:40.723Z,40.99
2022-10-09T01:05:10.874Z,40.97
2022-10-09T01:07:48.546Z,41.42
2022-10-09T01:10:28.394Z,41.81
2022-10-09T01:13:05.477Z,41.33
2022-10-09T01:15:39.253Z,41.54
2022-10-09T01:18:14.101Z,41.57
2022-10-09T01:20:48.154Z,41.54
2022-10-09T01:23:42.264Z,41.62
2022-10-09T01:26:19.593Z,41.49
2022-10-09T01:28:53.485Z,41.64
2022-10-09T01:31:24.317Z,41.01
2022-10-09T01:33:52.602Z,40.99
2022-10-09T01:36:23.096Z,41.27
2022-10-09T01:38:51.440Z,41.24
2022-10-09T01:41:19.667Z,40.98
2022-10-09T01:43:48.849Z,41.02
2022-10-09T01:46:22.331Z,41.43
2022-10-09T01:48:58.930Z,41.61
2022-10-09T01:51:31.642Z,41.39
2022-10-09T01:54:06.058Z,41.42
2022-10-09T01:56:37.733Z,41.59
2022-10-09T01:59:15.831Z,41.66
2022-10-09T02:01:45.540Z,41.35
2022-10-09T02:04:15.689Z,41.33
2022-10-09T02:06:46.479Z,41.37
2022-10-09T02:09:17.939Z,41.26
2022-10-09T02:11:52.200Z,41.72
2022-10-09T02:14:22.613Z,41.71
2022-10-09T02:17:00.709Z,42.15
2022-10-09T02:19:32.889Z,41.63
2022-10-09T02:22:06.720Z,41.84
2022-10-09T02:24:35.327Z,41.41
2022-10-09T02:27:03.762Z,41.27
2022-10-09T02:29:33.397Z,41.27
2022-10-09T02:32:01.305Z,41.30
2022-10-09T02:34:29.178Z,41.53
2022-10-09T02:36:56.967Z,41.39
2022-10-09T02:39:24.997Z,41.22
2022-10-09T02:41:52.781Z,41.19
2022-10-09T02:44:23.192Z,41.18
2022-10-09T02:46:52.440Z,41.19
2022-10-09T02:49:20.266Z,41.57
2022-10-09T02:51:48.028Z,41.51
2022-10-09T02:54:16.229Z,41.39
2022-10-09T02:56:44.108Z,41.23
2022-10-09T02:59:11.919Z,41.50
2022-10-09T03:01:39.944Z,41.33
2022-10-09T03:04:09.133Z,41.72
2022-10-09T03:06:39.125Z,41.44
2022-10-09T03:09:07.098Z,41.50
2022-10-09T03:11:35.055Z,41.76
2022-10-09T03:14:02.831Z,41.64
2022-10-09T03:16:30.668Z,41.53
2022-10-09T03:19:00.041Z,41.50
2022-10-09T03:21:29.669Z,41.79
2022-10-09T03:23:57.509Z,41.79
2022-10-09T03:26:27.934Z,41.85
2022-10-09T03:28:56.683Z,41.57
2022-10-09T03:34:14.326Z,41.72
2022-10-09T03:36:43.538Z,41.55
2022-10-09T03:39:11.469Z,41.69
2022-10-09T03:41:39.248Z,41.86
2022-10-09T03:44:07.111Z,41.66
2022-10-09T03:46:34.893Z,41.79
2022-10-09T03:49:02.722Z,41.85
2022-10-09T03:51:30.461Z,41.70
2022-10-09T03:53:59.599Z,41.83
2022-10-09T03:56:27.546Z,41.74
2022-10-09T03:58:55.338Z,41.97
2022-10-09T04:01:23.183Z,41.81
2022-10-09T04:03:51.021Z,41.74
2022-10-09T04:06:18.739Z,41.95
2022-10-09T04:08:46.546Z,42.11
2022-10-09T04:11:15.829Z,41.99
2022-10-09T04:13:43.574Z,42.06
2022-10-09T04:16:12.723Z,41.90
2022-10-09T04:18:41.217Z,42.06
2022-10-09T04:21:09.391Z,42.22
2022-10-09T04:23:37.272Z,42.23
2022-10-09T04:26:05.059Z,42.10
2022-10-09T04:28:34.598Z,42.52
2022-10-09T04:31:02.395Z,42.16
2022-10-09T04:33:30.159Z,42.27
2022-10-09T04:35:58.290Z,42.17
2022-10-09T04:38:26.475Z,42.08
2022-10-09T04:40:58.380Z,42.69
2022-10-09T04:43:26.312Z,42.20
2022-10-09T04:45:55.556Z,42.37
2022-10-09T04:48:23.987Z,42.10
2022-10-09T04:50:51.742Z,42.52
2022-10-09T04:53:19.532Z,42.33
2022-10-09T04:55:47.464Z,42.27
2022-10-09T04:58:15.629Z,42.46
2022-10-09T05:00:44.222Z,42.38
2022-10-09T05:03:14.010Z,42.48
2022-10-09T05:05:42.021Z,42.28
2022-10-09T05:08:09.858Z,42.19
2022-10-09T05:10:37.722Z,42.32
2022-10-09T05:13:05.488Z,42.40
2022-10-09T05:15:36.928Z,42.03
2022-10-09T05:18:04.993Z,42.19
2022-10-09T05:20:34.121Z,42.13
2022-10-09T05:23:01.929Z,42.10
2022-10-09T05:25:29.711Z,42.16
2022-10-09T05:27:57.506Z,41.94
2022-10-09T05:30:25.233Z,42.02
2022-10-09T05:32:53.012Z,42.21
2022-10-09T05:35:20.752Z,41.91
2022-10-09T05:37:49.917Z,41.96
2022-10-09T05:40:18.015Z,42.06
2022-10-09T05:42:45.895Z,42.11
2022-10-09T05:45:13.863Z,41.90
2022-10-09T05:47:41.681Z,41.97
2022-10-09T05:50:12.977Z,41.88
2022-10-09T05:52:40.930Z,42.27
2022-10-09T05:55:10.510Z,42.15
2022-10-09T05:57:38.533Z,42.10
2022-10-09T06:00:07.249Z,42.04
2022-10-09T06:02:40.126Z,41.97
2022-10-09T06:05:08.510Z,42.11
2022-10-09T06:07:36.291Z,42.12
2022-10-09T06:10:04.438Z,42.05
2022-10-09T06:12:33.547Z,42.16
2022-10-09T06:15:02.296Z,42.02
2022-10-09T06:17:30.074Z,42.18
2022-10-09T06:19:58.643Z,42.08
2022-10-09T06:22:26.812Z,42.14
2022-10-09T06:24:54.723Z,42.35
2022-10-09T06:27:22.467Z,42.48
2022-10-09T06:29:53.313Z,42.82
2022-10-09T06:32:21.219Z,43.24
2022-10-09T06:34:48.973Z,43.63
2022-10-09T06:37:16.756Z,44.45
2022-10-09T06:39:44.500Z,44.68
2022-10-09T06:42:12.259Z,45.09
2022-10-09T06:44:52.443Z,45.05
2022-10-09T06:47:20.280Z,45.07
2022-10-09T06:49:48.022Z,45.14
2022-10-09T06:52:15.809Z,45.36
2022-10-09T06:54:43.537Z,44.84
2022-10-09T06:57:11.292Z,44.71
2022-10-09T06:59:40.424Z,44.28
2022-10-09T07:02:10.025Z,43.88
2022-10-09T07:04:37.841Z,43.92
2022-10-09T07:07:05.610Z,43.67
2022-10-09T07:09:33.329Z,43.62
2022-10-09T07:12:01.079Z,42.97
2022-10-09T07:14:31.251Z,42.52
2022-10-09T07:16:59.007Z,42.01
2022-10-09T07:19:28.141Z,41.61
2022-10-09T07:21:56.118Z,41.22
2022-10-09T07:24:25.342Z,41.26
2022-10-09T07:26:55.340Z,41.06
2022-10-09T07:29:23.212Z,40.36
2022-10-09T07:31:50.986Z,39.45
2022-10-09T07:34:21.371Z,39.49
2022-10-09T07:36:50.498Z,38.45
2022-10-09T07:39:19.644Z,38.48
2022-10-09T07:41:47.853Z,38.30
2022-10-09T07:44:15.661Z,38.01
2022-10-09T07:46:44.439Z,37.65
2022-10-09T07:49:12.332Z,37.33
2022-10-09T07:51:40.107Z,37.67
2022-10-09T07:54:11.168Z,36.15
2022-10-09T07:56:39.605Z,36.74
2022-10-09T07:59:09.458Z,35.99
2022-10-09T08:01:37.484Z,36.04
2022-10-09T08:04:05.899Z,35.64
2022-10-09T08:06:34.393Z,35.60
2022-10-09T08:09:04.745Z,36.07
2022-10-09T08:11:35.181Z,36.12
2022-10-09T08:14:03.029Z,35.87
2022-10-09T08:16:33.206Z,36.14
2022-10-09T08:19:02.873Z,35.96
2022-10-09T08:21:32.812Z,36.34
2022-10-09T08:24:01.071Z,36.74
2022-10-09T08:26:34.607Z,36.82
2022-10-09T08:29:04.832Z,37.17
2022-10-09T08:31:33.589Z,36.97
2022-10-09T08:34:03.706Z,37.52
2022-10-09T08:36:32.415Z,37.19
2022-10-09T08:39:00.181Z,37.09
2022-10-09T08:41:44.213Z,37.29
2022-10-09T08:44:18.183Z,37.46
2022-10-09T08:46:54.374Z,36.97
2022-10-09T08:49:28.360Z,37.21
2022-10-09T08:51:59.118Z,36.93
2022-10-09T08:54:34.463Z,36.17
2022-10-09T08:57:05.567Z,36.89
2022-10-09T08:59:33.502Z,36.68
2022-10-09T09:02:09.643Z,36.59
2022-10-09T09:04:52.379Z,36.35
2022-10-09T09:07:30.961Z,36.76
2022-10-09T09:10:03.992Z,36.64
2022-10-09T09:12:44.186Z,36.21
2022-10-09T09:15:29.399Z,36.35
2022-10-09T09:18:07.747Z,36.46
2022-10-09T09:20:45.081Z,36.17
2022-10-09T09:23:16.992Z,37.11
2022-10-09T09:25:46.684Z,37.47
2022-10-09T09:28:21.358Z,37.10
2022-10-09T09:30:52.857Z,37.19
2022-10-09T09:33:36.646Z,36.63
2022-10-09T09:36:10.390Z,36.95
2022-10-09T09:39:01.254Z,36.68
2022-10-09T09:41:28.300Z,36.52
2022-10-09T09:43:58.686Z,36.33
2022-10-09T09:46:30.219Z,36.46
2022-10-09T09:48:58.121Z,36.22
2022-10-09T09:51:29.656Z,36.16
2022-10-09T09:54:00.671Z,36.55
2022-10-09T09:57:10.591Z,35.63
2022-10-09T09:59:34.909Z,35.47
2022-10-09T10:02:04.975Z,35.53
2022-10-09T10:04:33.644Z,35.64
2022-10-09T10:07:01.393Z,35.02
2022-10-09T10:09:29.205Z,35.64
2022-10-09T10:11:59.524Z,35.50
2022-10-09T10:14:27.969Z,35.66
2022-10-09T10:17:02.471Z,34.87
2022-10-09T10:19:34.899Z,35.60
2022-10-09T10:22:06.448Z,35.67
2022-10-09T10:24:38.885Z,35.16
2022-10-09T10:27:14.915Z,34.21
2022-10-09T10:29:47.962Z,34.40
2022-10-09T10:32:22.719Z,34.27
2022-10-09T10:34:54.721Z,34.42
2022-10-09T10:37:32.537Z,32.76
2022-10-09T10:40:06.039Z,34.24
2022-10-09T10:42:43.774Z,33.91
2022-10-09T10:45:17.024Z,33.75
2022-10-09T10:47:52.549Z,33.50
2022-10-09T10:50:21.578Z,33.82
2022-10-09T10:53:02.477Z,33.19
2022-10-09T10:55:49.910Z,33.64
2022-10-09T10:58:26.182Z,33.59
2022-10-09T11:01:07.515Z,33.92
2022-10-09T11:03:54.009Z,32.68
2022-10-09T11:06:27.023Z,32.97
2022-10-09T11:09:10.217Z,32.54
2022-10-09T11:11:44.878Z,32.82
2022-10-09T11:14:29.725Z,32.14
2022-10-09T11:17:06.796Z,32.62
2022-10-09T11:19:58.930Z,31.78
2022-10-09T11:22:50.428Z,32.44
2022-10-09T11:25:29.527Z,32.30
2022-10-09T11:28:03.351Z,33.01
2022-10-09T11:30:38.163Z,32.52
2022-10-09T11:33:13.671Z,32.34
2022-10-09T11:35:49.472Z,31.98
2022-10-09T11:38:27.162Z,31.38
2022-10-09T11:40:56.673Z,32.42
2022-10-09T11:43:53.786Z,31.61
2022-10-09T11:46:30.514Z,31.61
2022-10-09T11:49:08.521Z,31.26
2022-10-09T11:51:46.364Z,31.71
2022-10-09T11:54:16.969Z,32.23
2022-10-09T11:56:55.334Z,31.13
2022-10-09T11:59:30.074Z,31.59
2022-10-09T12:01:59.204Z,31.13
2022-10-09T12:04:53.448Z,30.36
2022-10-09T12:07:30.574Z,30.19
2022-10-09T12:10:02.876Z,30.65
2022-10-09T12:12:31.046Z,30.86
2022-10-09T12:14:59.501Z,30.72
2022-10-09T12:17:35.657Z,29.04
2022-10-09T12:20:07.659Z,30.56
2022-10-09T12:22:41.516Z,30.32
2022-10-09T12:25:18.015Z,29.97
2022-10-09T12:27:47.249Z,30.41
2022-10-09T12:30:21.386Z,28.38
2022-10-09T12:32:55.290Z,29.40
2022-10-09T12:35:27.282Z,29.01
2022-10-09T12:37:56.544Z,29.05
2022-10-09T12:40:27.242Z,29.33
2022-10-09T12:42:57.258Z,29.01
2022-10-09T12:45:27.590Z,29.24
2022-10-09T12:47:55.892Z,29.32
2022-10-09T12:50:26.336Z,28.62
2022-10-09T12:52:58.388Z,28.53
2022-10-09T12:55:29.066Z,28.65
2022-10-09T12:58:00.482Z,28.82
2022-10-09T13:00:28.511Z,29.26
2022-10-09T13:02:56.584Z,29.42
2022-10-09T13:05:24.759Z,28.70
2022-10-09T13:07:54.762Z,29.01
2022-10-09T13:10:28.109Z,28.32
2022-10-09T13:13:01.161Z,28.25
2022-10-09T13:15:32.378Z,28.28
2022-10-09T13:18:00.317Z,28.75
2022-10-09T13:20:30.344Z,28.30
2022-10-09T13:23:00.185Z,28.56
2022-10-09T13:25:33.483Z,28.24
2022-10-09T13:28:01.352Z,28.35
2022-10-09T13:30:29.313Z,27.88
2022-10-09T13:32:57.278Z,28.38
2022-10-09T13:35:25.257Z,27.97
2022-10-09T13:37:53.221Z,28.08
2022-10-09T13:40:22.314Z,27.70
2022-10-09T13:42:55.428Z,27.75
2022-10-09T13:45:23.861Z,27.92
2022-10-09T13:47:52.092Z,27.65
2022-10-09T13:50:20.739Z,27.48
2022-10-09T13:52:48.567Z,27.52
2022-10-09T13:55:17.123Z,27.37
2022-10-09T13:57:44.967Z,27.40
2022-10-09T14:00:15.254Z,27.51
2022-10-09T14:02:44.719Z,27.26
2022-10-09T14:05:14.623Z,27.02
2022-10-09T14:07:45.705Z,27.50
2022-10-09T14:10:14.748Z,27.40
2022-10-09T14:12:42.718Z,27.29
2022-10-09T14:15:11.302Z,27.25
2022-10-09T14:17:40.570Z,26.58
2022-10-09T14:20:09.108Z,27.15
2022-10-09T14:22:37.537Z,27.04
2022-10-09T14:25:06.556Z,26.63
2022-10-09T14:30:35.769Z,26.49
2022-10-09T14:33:08.120Z,27.66
2022-10-09T14:35:36.708Z,27.32
2022-10-09T14:38:04.986Z,26.79
2022-10-09T14:40:32.833Z,26.23
2022-10-09T14:43:00.652Z,26.72
2022-10-09T14:45:29.007Z,26.15
2022-10-09T14:47:56.807Z,26.43
2022-10-09T14:50:26.075Z,26.09
2022-10-09T14:52:53.813Z,26.63
2022-10-09T14:55:21.717Z,26.58
2022-10-09T14:57:49.972Z,26.12
2022-10-09T15:00:18.130Z,25.74
2022-10-09T15:02:45.936Z,25.52
2022-10-09T15:05:14.113Z,25.96
2022-10-09T15:07:43.370Z,25.46
2022-10-09T15:10:12.274Z,25.96
2022-10-09T15:12:40.997Z,25.98
2022-10-09T15:15:10.141Z,25.88
2022-10-09T15:17:37.906Z,26.03
2022-10-09T15:20:07.646Z,25.57
2022-10-09T15:22:37.272Z,25.71
2022-10-09T15:25:08.682Z,26.18
2022-10-09T15:30:58.228Z,25.59
2022-10-09T15:33:34.431Z,25.89
2022-10-09T15:36:06.206Z,26.23
2022-10-09T15:38:36.116Z,26.47
2022-10-09T15:41:10.160Z,25.83
2022-10-09T15:43:41.797Z,26.22
2022-10-09T15:46:09.740Z,26.25
2022-10-09T15:48:39.417Z,26.23
2022-10-09T15:51:08.722Z,26.12
2022-10-09T15:53:36.613Z,26.56
2022-10-09T15:56:07.021Z,26.73
2022-10-09T15:58:39.731Z,26.51
2022-10-09T16:01:13.525Z,26.62
2022-10-09T16:03:45.752Z,26.33
2022-10-09T16:06:16.496Z,26.85
2022-10-09T16:08:46.161Z,26.75
2022-10-09T16:11:20.315Z,26.47
2022-10-09T16:13:51.393Z,26.85
2022-10-09T16:16:21.142Z,26.75
2022-10-09T16:18:49.519Z,26.83
2022-10-09T16:21:19.525Z,27.15
2022-10-09T16:23:47.523Z,26.90
2022-10-09T16:26:19.676Z,27.05
2022-10-09T16:28:48.470Z,27.10
2022-10-09T16:31:20.720Z,27.21
2022-10-09T16:33:50.853Z,27.38
2022-10-09T16:36:19.572Z,27.09
2022-10-09T16:38:48.100Z,27.08
2022-10-09T16:41:18.615Z,27.69
2022-10-09T16:43:47.756Z,27.60
2022-10-09T16:46:19.493Z,27.49
2022-10-09T16:48:48.225Z,27.63
2022-10-09T16:51:17.668Z,27.64
2022-10-09T16:53:45.736Z,28.08
2022-10-09T16:56:15.644Z,28.15
2022-10-09T16:58:45.323Z,28.29
2022-10-09T17:01:13.741Z,28.36
2022-10-09T17:04:09.062Z,28.32
2022-10-09T17:06:58.959Z,28.54
2022-10-09T17:09:29.444Z,28.08
2022-10-09T17:11:57.494Z,28.51
2022-10-09T17:14:26.699Z,28.29
2022-10-09T17:16:54.471Z,28.15
2022-10-09T17:19:22.350Z,28.25
2022-10-09T17:21:52.865Z,28.57
2022-10-09T17:24:20.679Z,28.28
2022-10-09T17:26:48.453Z,28.52
2022-10-09T17:29:16.351Z,28.57
2022-10-09T17:31:48.214Z,28.36
2022-10-09T17:34:16.714Z,28.82
2022-10-09T17:36:45.751Z,28.82
2022-10-09T17:39:16.299Z,28.87
2022-10-09T17:41:47.006Z,28.86
2022-10-09T17:44:16.136Z,28.95
2022-10-09T17:46:45.277Z,28.83
2022-10-09T17:49:13.273Z,28.96
2022-10-09T17:51:41.246Z,28.93
2022-10-09T17:54:12.339Z,29.29
2022-10-09T17:56:40.596Z,29.54
2022-10-09T17:59:09.158Z,29.60
2022-10-09T18:01:37.888Z,29.16
2022-10-09T18:04:07.045Z,29.65
2022-10-09T18:06:35.882Z,29.75
2022-10-09T18:09:05.305Z,29.74
2022-10-09T18:11:33.333Z,30.23
2022-10-09T18:14:01.509Z,30.34
2022-10-09T18:16:35.846Z,30.42
2022-10-09T18:19:07.915Z,30.11
2022-10-09T18:21:36.189Z,30.65
2022-10-09T18:24:04.165Z,30.41
2022-10-09T18:26:31.949Z,30.53
2022-10-09T18:29:00.419Z,30.57
2022-10-09T18:31:28.971Z,30.79
2022-10-09T18:34:00.764Z,31.22
2022-10-09T18:36:33.587Z,31.33
2022-10-09T18:39:02.263Z,31.81
2022-10-09T18:41:30.140Z,31.42
2022-10-09T18:43:59.831Z,31.58
2022-10-09T18:46:31.944Z,31.53
2022-10-09T18:49:00.371Z,31.91
2022-10-09T18:51:30.123Z,31.68
2022-10-09T18:54:02.673Z,31.92
2022-10-09T18:56:33.331Z,31.99
2022-10-09T18:59:02.604Z,31.99
2022-10-09T19:01:30.446Z,32.24
2022-10-09T19:03:58.457Z,32.38
2022-10-09T19:06:26.312Z,32.34
2022-10-09T19:08:57.806Z,32.45
2022-10-09T19:11:25.750Z,32.54
2022-10-09T19:13:54.557Z,32.64
2022-10-09T19:16:24.217Z,32.51
2022-10-09T19:18:53.166Z,32.96
2022-10-09T19:21:21.206Z,32.72
2022-10-09T19:23:49.752Z,32.49
2022-10-09T19:26:19.412Z,32.97
2022-10-09T19:28:47.524Z,32.63
2022-10-09T19:31:15.746Z,33.35
2022-10-09T19:33:44.329Z,32.90
2022-10-09T19:36:13.791Z,33.22
2022-10-09T19:38:43.475Z,33.31
2022-10-09T19:41:13.594Z,33.38
2022-10-09T19:43:43.355Z,33.42
2022-10-09T19:46:14.060Z,33.16
2022-10-09T19:48:42.129Z,33.68
2022-10-09T19:51:13.191Z,33.97
2022-10-09T19:53:42.337Z,33.56
2022-10-09T19:56:15.173Z,33.68
2022-10-09T19:58:46.396Z,34.21
2022-10-09T20:01:15.896Z,34.10
2022-10-09T20:03:44.238Z,34.07
2022-10-09T20:06:12.505Z,34.11
2022-10-09T20:08:45.396Z,34.01
2022-10-09T20:11:14.839Z,34.24
2022-10-09T20:13:51.038Z,35.07
2022-10-09T20:16:23.280Z,34.56
2022-10-09T20:18:53.845Z,34.53
2022-10-09T20:21:21.770Z,34.33
2022-10-09T20:23:49.560Z,34.79
2022-10-09T20:26:19.078Z,34.51
2022-10-09T20:28:48.936Z,35.10
2022-10-09T20:31:19.482Z,34.72
2022-10-09T20:33:48.277Z,34.67
2022-10-09T20:36:21.877Z,35.24
2022-10-09T20:38:50.280Z,35.25
2022-10-09T20:41:18.193Z,35.09
2022-10-09T20:43:58.848Z,35.65
2022-10-09T20:47:24.280Z,35.73
2022-10-09T20:50:26.047Z,35.57
2022-10-09T20:56:22.178Z,35.59
2022-10-09T20:58:50.436Z,35.43
2022-10-09T21:01:28.728Z,35.29
2022-10-09T21:03:59.030Z,35.38
2022-10-09T21:06:27.872Z,35.33
2022-10-09T21:08:56.422Z,35.38
2022-10-09T21:11:25.153Z,35.21
2022-10-09T21:13:53.371Z,35.63
2022-10-09T21:16:25.033Z,35.35
2022-10-09T21:18:54.820Z,35.69
2022-10-09T21:21:22.749Z,35.70
2022-10-09T21:23:52.480Z,35.52
2022-10-09T21:26:21.610Z,35.40
2022-10-09T21:28:53.327Z,35.27
2022-10-09T21:31:28.785Z,36.02
2022-10-09T21:33:57.744Z,35.64
2022-10-09T21:36:33.691Z,35.99
2022-10-09T21:39:04.623Z,35.33
2022-10-09T21:41:32.984Z,35.39
2022-10-09T21:44:01.555Z,35.45
2022-10-09T21:46:31.809Z,35.79
2022-10-09T21:49:02.271Z,36.11
2022-10-09T21:51:32.167Z,35.58
2022-10-09T21:54:00.095Z,36.05
2022-10-09T21:56:28.109Z,35.81
2022-10-09T21:58:59.114Z,35.93
2022-10-09T22:01:33.245Z,35.89
2022-10-09T22:04:48.700Z,36.04
2022-10-09T22:10:58.685Z,36.38
2022-10-09T22:21:04.708Z,36.14
2022-10-09T22:23:49.873Z,35.98
2022-10-09T22:35:07.484Z,36.26
2022-10-09T22:37:42.265Z,36.27
2022-10-09T22:46:44.727Z,36.02
2022-10-09T22:49:47.088Z,36.30
2022-10-09T22:52:16.567Z,36.24
2022-10-09T22:54:44.574Z,36.44
2022-10-09T22:57:12.411Z,36.33
2022-10-09T22:59:40.172Z,36.37
2022-10-09T23:02:08.099Z,36.38
2022-10-09T23:04:36.430Z,36.59
2022-10-09T23:07:04.393Z,36.64
2022-10-09T23:09:35.624Z,36.65
2022-10-09T23:12:03.657Z,36.34
2022-10-09T23:14:31.532Z,36.82
2022-10-09T23:16:59.740Z,36.63
2022-10-09T23:19:27.528Z,36.51
2022-10-09T23:21:55.403Z,36.57
2022-10-09T23:24:23.344Z,36.62
2022-10-09T23:26:52.939Z,36.60
2022-10-09T23:29:21.762Z,36.90
2022-10-09T23:31:53.101Z,37.20
2022-10-09T23:34:21.102Z,36.78
2022-10-09T23:36:49.155Z,36.60
2022-10-09T23:39:17.320Z,37.18
2022-10-09T23:41:45.178Z,36.72
2022-10-09T23:44:15.967Z,36.97
2022-10-09T23:46:45.739Z,36.94
2022-10-09T23:49:13.553Z,37.07
2022-10-09T23:54:26.872Z,36.73
2022-10-09T23:57:08.379Z,37.34
2022-10-09T23:59:45.079Z,37.35
